createdAt,value
2023-03-22T00:02:02.326Z,1.33
2023-03-22T00:04:28.776Z,1.50
2023-03-22T00:06:55.383Z,1.25
2023-03-22T00:09:21.825Z,1.33
2023-03-22T00:11:50.917Z,1.27
2023-03-22T00:14:20.516Z,1.23
2023-03-22T00:16:49.047Z,1.75
2023-03-22T00:19:16.521Z,2.33
2023-03-22T00:21:43.402Z,5.47
2023-03-22T00:24:09.874Z,4.32
2023-03-22T00:26:36.339Z,4.13
2023-03-22T00:29:03.274Z,1.33
2023-03-22T00:31:30.202Z,1.58
2023-03-22T00:33:56.687Z,1.40
2023-03-22T00:36:23.135Z,1.40
2023-03-22T00:38:51.839Z,1.30
2023-03-22T00:41:20.861Z,1.20
2023-03-22T00:43:48.728Z,1.55
2023-03-22T00:46:16.984Z,1.70
2023-03-22T00:48:44.488Z,1.25
2023-03-22T00:51:12.013Z,1.63
2023-03-22T00:53:42.555Z,2.17
2023-03-22T00:56:10.698Z,1.25
2023-03-22T00:58:43.671Z,1.50
2023-03-22T01:01:13.839Z,3.05
2023-03-22T01:03:42.108Z,2.15
2023-03-22T01:06:10.496Z,1.15
2023-03-22T01:08:38.650Z,1.40
2023-03-22T01:11:07.252Z,1.13
2023-03-22T01:13:37.547Z,0.93
2023-03-22T01:16:05.678Z,1.08
2023-03-22T01:18:34.942Z,1.10
2023-03-22T01:21:02.212Z,1.15
2023-03-22T01:23:29.082Z,1.63
2023-03-22T01:25:55.583Z,1.58
2023-03-22T01:28:22.195Z,1.20
2023-03-22T01:30:49.027Z,1.13
2023-03-22T01:33:15.676Z,1.58
2023-03-22T01:35:42.248Z,0.90
2023-03-22T01:38:09.939Z,0.95
2023-03-22T01:40:43.086Z,0.80
2023-03-22T01:43:15.608Z,1.60
2023-03-22T01:45:53.403Z,1.20
2023-03-22T01:48:34.152Z,1.05
2023-03-22T01:51:07.747Z,2.30
2023-03-22T01:53:54.458Z,0.80
2023-03-22T01:56:24.639Z,1.30
2023-03-22T01:58:54.087Z,1.30
2023-03-22T02:01:27.254Z,1.15
2023-03-22T02:04:03.039Z,1.85
2023-03-22T02:06:32.348Z,1.23
2023-03-22T02:09:09.133Z,1.17
2023-03-22T02:11:41.441Z,1.45
2023-03-22T02:14:42.456Z,1.40
2023-03-22T02:17:31.957Z,1.17
2023-03-22T02:20:38.425Z,1.95
2023-03-22T02:23:42.951Z,1.27
2023-03-22T02:26:47.051Z,1.88
2023-03-22T02:29:45.175Z,1.35
2023-03-22T02:32:49.109Z,1.58
2023-03-22T02:35:21.636Z,1.63
2023-03-22T02:38:23.431Z,1.42
2023-03-22T02:41:08.174Z,1.20
2023-03-22T02:43:41.723Z,1.55
2023-03-22T02:46:15.866Z,1.00
2023-03-22T02:49:07.811Z,1.50
2023-03-22T02:51:42.156Z,1.20
2023-03-22T02:54:44.074Z,1.48
2023-03-22T02:57:24.849Z,1.05
2023-03-22T02:59:53.828Z,1.40
2023-03-22T03:02:21.974Z,1.52
2023-03-22T03:04:51.826Z,3.20
2023-03-22T03:07:22.603Z,1.50
2023-03-22T03:09:51.040Z,1.80
2023-03-22T03:12:25.472Z,1.60
2023-03-22T03:17:49.885Z,1.35
2023-03-22T03:20:30.108Z,1.30
2023-03-22T03:23:28.553Z,1.92
2023-03-22T03:26:03.168Z,1.65
2023-03-22T03:28:38.439Z,1.63
2023-03-22T03:31:31.444Z,1.30
2023-03-22T03:34:08.875Z,4.20
2023-03-22T03:36:39.448Z,3.05
2023-03-22T03:39:12.431Z,2.13
2023-03-22T03:41:42.044Z,1.95
2023-03-22T03:44:09.274Z,1.88
2023-03-22T03:46:36.549Z,1.48
2023-03-22T03:49:04.628Z,1.48
2023-03-22T03:51:33.305Z,1.77
2023-03-22T03:53:59.725Z,1.52
2023-03-22T03:56:26.199Z,2.35
2023-03-22T03:58:54.216Z,1.50
2023-03-22T04:01:20.783Z,1.30
2023-03-22T04:03:50.506Z,3.97
2023-03-22T04:06:39.417Z,1.90
2023-03-22T04:09:11.830Z,1.40
2023-03-22T04:11:42.664Z,1.55
2023-03-22T04:14:09.396Z,1.50
2023-03-22T04:16:35.901Z,1.48
2023-03-22T04:19:02.834Z,1.40
2023-03-22T04:21:29.346Z,3.50
2023-03-22T04:23:58.193Z,1.80
2023-03-22T04:26:26.804Z,1.88
2023-03-22T04:29:12.183Z,4.93
2023-03-22T04:31:44.057Z,4.80
2023-03-22T04:34:23.087Z,1.58
2023-03-22T04:37:03.804Z,1.50
2023-03-22T04:39:32.237Z,2.47
2023-03-22T04:42:17.044Z,1.70
2023-03-22T04:44:45.049Z,3.28
2023-03-22T04:47:11.764Z,1.08
2023-03-22T04:49:38.348Z,1.58
2023-03-22T04:52:05.209Z,2.70
2023-03-22T04:54:36.568Z,1.60
2023-03-22T04:57:04.348Z,3.00
2023-03-22T04:59:37.298Z,1.92
2023-03-22T05:02:04.026Z,2.95
2023-03-22T05:04:37.885Z,2.72
2023-03-22T05:07:12.760Z,2.35
2023-03-22T05:09:45.353Z,1.50
2023-03-22T05:12:12.927Z,2.60
2023-03-22T05:15:01.043Z,1.60
2023-03-22T05:17:33.629Z,4.32
2023-03-22T05:20:08.824Z,2.72
2023-03-22T05:22:40.466Z,1.70
2023-03-22T05:25:10.468Z,2.97
2023-03-22T05:27:38.902Z,1.92
2023-03-22T05:30:18.273Z,3.28
2023-03-22T05:33:03.550Z,2.53
2023-03-22T05:35:36.832Z,3.75
2023-03-22T05:38:04.317Z,4.28
2023-03-22T05:40:33.489Z,6.28
2023-03-22T05:43:00.293Z,4.30
2023-03-22T05:45:27.780Z,4.43
2023-03-22T05:48:07.540Z,4.75
2023-03-22T05:50:35.326Z,6.80
2023-03-22T05:53:03.338Z,8.52
2023-03-22T05:55:34.144Z,4.95
2023-03-22T05:58:05.073Z,4.13
2023-03-22T06:00:35.664Z,4.22
2023-03-22T06:03:20.304Z,3.00
2023-03-22T06:05:54.963Z,2.67
2023-03-22T06:08:34.207Z,3.05
2023-03-22T06:11:00.871Z,2.97
2023-03-22T06:13:27.453Z,6.72
2023-03-22T06:15:54.149Z,4.28
2023-03-22T06:18:23.851Z,4.38
2023-03-22T06:20:59.901Z,5.47
2023-03-22T06:23:26.452Z,4.45
2023-03-22T06:25:53.917Z,3.85
2023-03-22T06:28:20.603Z,2.70
2023-03-22T06:30:53.180Z,4.07
2023-03-22T06:33:33.499Z,4.57
2023-03-22T06:36:06.943Z,3.67
2023-03-22T06:38:55.302Z,4.38
2023-03-22T06:41:22.084Z,3.45
2023-03-22T06:43:50.255Z,4.70
2023-03-22T06:46:34.443Z,4.03
2023-03-22T06:49:09.278Z,3.42
2023-03-22T06:51:36.368Z,3.42
2023-03-22T06:54:03.106Z,3.03
2023-03-22T06:56:29.766Z,4.07
2023-03-22T06:58:57.960Z,5.18
2023-03-22T07:01:25.340Z,3.30
2023-03-22T07:03:51.940Z,3.33
2023-03-22T07:06:21.804Z,2.83
2023-03-22T07:08:51.969Z,3.33
2023-03-22T07:11:22.970Z,4.15
2023-03-22T07:13:56.941Z,4.35
2023-03-22T07:16:23.703Z,6.05
2023-03-22T07:18:53.259Z,9.73
2023-03-22T07:21:19.873Z,11.75
2023-03-22T07:23:51.373Z,12.30
2023-03-22T07:26:19.846Z,12.15
2023-03-22T07:28:48.832Z,12.80
2023-03-22T07:31:16.131Z,12.30
2023-03-22T07:36:34.492Z,6.25
2023-03-22T07:39:01.490Z,7.20
2023-03-22T07:41:34.866Z,2.85
2023-03-22T07:44:22.020Z,2.42
2023-03-22T07:47:11.663Z,5.03
2023-03-22T07:49:49.140Z,3.15
2023-03-22T07:52:19.619Z,2.40
2023-03-22T07:54:47.275Z,1.40
2023-03-22T07:57:13.839Z,1.42
2023-03-22T07:59:46.379Z,1.63
2023-03-22T08:02:13.805Z,1.55
2023-03-22T08:04:46.309Z,1.27
2023-03-22T08:07:42.311Z,1.20
2023-03-22T08:10:10.980Z,1.00
2023-03-22T08:12:37.497Z,2.20
2023-03-22T08:15:16.170Z,1.30
2023-03-22T08:17:45.316Z,2.35
2023-03-22T08:20:18.803Z,6.15
2023-03-22T08:22:51.050Z,1.02
2023-03-22T08:25:40.913Z,1.80
2023-03-22T08:28:10.475Z,1.95
2023-03-22T08:30:37.882Z,1.05
2023-03-22T08:33:05.024Z,0.90
2023-03-22T08:35:32.419Z,1.40
2023-03-22T08:37:58.940Z,1.75
2023-03-22T08:40:34.261Z,3.00
2023-03-22T08:43:02.468Z,2.75
2023-03-22T08:45:30.254Z,1.40
2023-03-22T08:48:05.372Z,0.52
2023-03-22T08:50:43.818Z,0.70
2023-03-22T08:53:19.789Z,2.58
2023-03-22T08:55:53.146Z,1.58
2023-03-22T08:58:38.836Z,2.05
2023-03-22T09:03:58.465Z,2.15
2023-03-22T09:06:28.403Z,11.07
2023-03-22T09:08:55.529Z,8.35
2023-03-22T09:11:23.559Z,4.45
2023-03-22T09:13:51.176Z,1.48
2023-03-22T09:16:18.982Z,0.73
2023-03-22T09:18:46.520Z,0.98
2023-03-22T09:21:16.989Z,2.15
2023-03-22T09:23:51.660Z,10.57
2023-03-22T09:26:24.152Z,2.40
2023-03-22T09:28:52.182Z,4.13
2023-03-22T09:31:20.544Z,9.85
2023-03-22T09:33:51.660Z,4.10
2023-03-22T09:36:19.850Z,0.85
2023-03-22T09:38:47.674Z,1.27
2023-03-22T09:41:21.346Z,1.08
2023-03-22T09:43:57.003Z,1.05
2023-03-22T09:46:31.294Z,1.77
2023-03-22T09:49:01.742Z,2.95
2023-03-22T09:51:30.993Z,3.05
2023-03-22T09:53:57.685Z,2.17
2023-03-22T09:56:29.333Z,1.10
2023-03-22T09:59:15.215Z,1.83
2023-03-22T10:02:01.366Z,1.40
2023-03-22T10:04:41.309Z,1.13
2023-03-22T10:07:24.389Z,0.80
2023-03-22T10:09:59.085Z,1.85
2023-03-22T10:12:30.645Z,1.45
2023-03-22T10:15:04.330Z,1.48
2023-03-22T10:17:31.589Z,0.90
2023-03-22T10:20:06.064Z,1.10
2023-03-22T10:22:38.283Z,0.90
2023-03-22T10:25:06.613Z,0.80
2023-03-22T10:27:34.259Z,1.23
2023-03-22T10:30:07.516Z,1.20
2023-03-22T10:32:58.425Z,0.88
2023-03-22T10:35:25.607Z,0.90
2023-03-22T10:37:53.859Z,1.30
2023-03-22T10:40:25.389Z,0.75
2023-03-22T10:42:56.354Z,0.82
2023-03-22T10:45:25.726Z,1.00
2023-03-22T10:48:11.718Z,0.80
2023-03-22T10:50:41.655Z,0.95
2023-03-22T10:53:18.430Z,1.00
2023-03-22T10:55:44.868Z,1.10
2023-03-22T10:58:17.048Z,0.80
2023-03-22T11:00:54.454Z,0.68
2023-03-22T11:03:35.190Z,3.35
2023-03-22T11:06:07.582Z,1.45
2023-03-22T11:08:43.503Z,3.22
2023-03-22T11:11:32.329Z,1.20
2023-03-22T11:14:06.966Z,3.47
2023-03-22T11:16:44.590Z,1.83
2023-03-22T11:19:17.303Z,1.90
2023-03-22T11:21:45.302Z,1.58
2023-03-22T11:24:14.437Z,1.00
2023-03-22T11:26:41.979Z,3.80
2023-03-22T11:29:18.426Z,2.22
2023-03-22T11:31:56.193Z,3.45
2023-03-22T11:34:26.515Z,1.35
2023-03-22T11:36:56.489Z,4.43
2023-03-22T11:39:25.923Z,5.10
2023-03-22T11:41:57.632Z,1.02
2023-03-22T11:44:26.734Z,2.00
2023-03-22T11:47:00.531Z,1.25
2023-03-22T11:49:39.528Z,0.82
2023-03-22T11:52:12.727Z,1.00
2023-03-22T11:54:42.403Z,0.82
2023-03-22T11:57:17.358Z,0.60
2023-03-22T12:00:00.716Z,0.70
2023-03-22T12:02:35.678Z,0.50
2023-03-22T12:05:13.092Z,0.80
2023-03-22T12:07:41.276Z,2.22
2023-03-22T12:10:19.961Z,0.77
2023-03-22T12:12:53.021Z,0.80
2023-03-22T12:15:26.024Z,0.80
2023-03-22T12:18:07.724Z,0.95
2023-03-22T12:21:00.782Z,2.08
2023-03-22T12:23:30.194Z,1.05
2023-03-22T12:26:04.130Z,0.85
2023-03-22T12:28:42.401Z,1.13
2023-03-22T12:31:19.469Z,1.02
2023-03-22T12:33:53.335Z,0.80
2023-03-22T12:36:40.015Z,0.85
2023-03-22T12:39:09.412Z,0.70
2023-03-22T12:41:39.446Z,0.80
2023-03-22T12:44:16.570Z,1.58
2023-03-22T12:46:51.230Z,0.70
2023-03-22T12:49:27.741Z,2.80
2023-03-22T12:51:59.832Z,0.52
2023-03-22T12:54:27.095Z,1.10
2023-03-22T12:56:55.265Z,1.75
2023-03-22T12:59:30.381Z,0.80
2023-03-22T13:02:24.901Z,0.80
2023-03-22T13:04:54.681Z,0.75
2023-03-22T13:07:51.986Z,1.02
2023-03-22T13:10:30.804Z,2.50
2023-03-22T13:13:17.966Z,0.70
2023-03-22T13:16:11.040Z,0.82
2023-03-22T13:18:37.868Z,0.93
2023-03-22T13:21:21.210Z,0.80
2023-03-22T13:24:05.875Z,1.83
2023-03-22T13:26:47.283Z,1.17
2023-03-22T13:29:21.690Z,2.05
2023-03-22T13:31:50.942Z,1.20
2023-03-22T13:34:20.887Z,1.13
2023-03-22T13:36:56.331Z,0.50
2023-03-22T13:39:25.291Z,0.85
2023-03-22T13:42:19.350Z,2.28
2023-03-22T13:44:53.918Z,1.35
2023-03-22T13:47:33.800Z,1.45
2023-03-22T13:50:09.827Z,0.90
2023-03-22T13:52:56.862Z,1.10
2023-03-22T13:56:04.755Z,0.60
2023-03-22T13:58:46.481Z,1.30
2023-03-22T14:01:17.298Z,0.98
2023-03-22T14:03:47.414Z,1.35
2023-03-22T14:06:31.847Z,0.57
2023-03-22T14:09:23.974Z,1.00
2023-03-22T14:11:57.361Z,0.57
2023-03-22T14:14:29.709Z,0.60
2023-03-22T14:17:04.959Z,0.77
2023-03-22T14:19:33.622Z,1.98
